createdAt,value
2022-08-09T00:01:05.517Z,22.57
2022-08-09T00:04:06.132Z,22.57
2022-08-09T00:06:23.666Z,22.57
2022-08-09T00:08:50.434Z,22.57
2022-08-09T00:11:24.168Z,22.58
2022-08-09T00:13:51.685Z,22.58
2022-08-09T00:16:25.971Z,22.56
2022-08-09T00:19:02.769Z,22.57
2022-08-09T00:21:35.930Z,22.57
2022-08-09T00:24:02.290Z,22.57
2022-08-09T00:26:30.113Z,22.58
2022-08-09T00:29:00.064Z,22.61
2022-08-09T00:32:00.055Z,22.61
2022-08-09T00:34:12.841Z,22.59
2022-08-09T00:36:41.569Z,22.59
2022-08-09T00:39:16.947Z,22.59
2022-08-09T00:44:16.199Z,22.58
2022-08-09T00:44:41.408Z,22.58
2022-08-09T00:47:08.446Z,22.58
2022-08-09T00:49:41.863Z,22.59
2022-08-09T00:52:17.518Z,22.58
2022-08-09T00:54:45.078Z,22.58
2022-08-09T00:57:11.534Z,22.57
2022-08-09T00:59:41.345Z,22.58
2022-08-09T01:02:14.513Z,22.58
2022-08-09T01:04:51.301Z,22.59
2022-08-09T01:07:37.562Z,22.58
2022-08-09T01:10:13.905Z,22.59
2022-08-09T01:12:45.318Z,22.59
2022-08-09T01:15:16.882Z,22.58
2022-08-09T01:17:51.999Z,22.57
2022-08-09T01:20:42.859Z,22.57
2022-08-09T01:24:00.884Z,22.57
2022-08-09T01:26:07.274Z,22.59
2022-08-09T01:28:33.654Z,22.58
2022-08-09T01:31:00.265Z,22.61
2022-08-09T01:33:27.168Z,22.59
2022-08-09T01:35:56.473Z,22.59
2022-08-09T01:38:26.102Z,22.59
2022-08-09T01:41:05.088Z,22.59
2022-08-09T01:43:51.089Z,22.58
2022-08-09T01:46:25.001Z,22.58
2022-08-09T01:48:53.211Z,22.57
2022-08-09T01:51:22.904Z,22.58
2022-08-09T01:53:49.926Z,22.56
2022-08-09T01:56:20.195Z,22.57
2022-08-09T01:58:49.012Z,22.58
2022-08-09T02:01:18.350Z,22.57
2022-08-09T02:03:45.165Z,22.57
2022-08-09T02:06:11.797Z,22.57
2022-08-09T02:08:57.002Z,22.56
2022-08-09T02:11:25.644Z,22.57
2022-08-09T02:14:09.356Z,22.56
2022-08-09T02:17:00.109Z,22.56
2022-08-09T02:19:23.263Z,22.56
2022-08-09T02:21:55.549Z,22.56
2022-08-09T02:24:25.892Z,22.57
2022-08-09T02:26:53.544Z,22.57
2022-08-09T02:29:24.305Z,22.56
2022-08-09T02:31:50.811Z,22.56
2022-08-09T02:34:38.691Z,22.54
2022-08-09T02:37:06.749Z,22.55
2022-08-09T02:39:42.057Z,22.56
2022-08-09T02:42:10.476Z,22.56
2022-08-09T02:44:38.176Z,22.56
2022-08-09T02:47:05.544Z,22.55
2022-08-09T02:49:39.021Z,22.55
2022-08-09T02:52:08.247Z,22.55
2022-08-09T02:54:34.606Z,22.55
2022-08-09T02:57:13.972Z,22.55
2022-08-09T03:00:20.455Z,22.55
2022-08-09T03:02:35.167Z,22.56
2022-08-09T03:05:02.126Z,22.54
2022-08-09T03:07:32.091Z,22.55
2022-08-09T03:10:00.439Z,22.55
2022-08-09T03:12:27.128Z,22.55
2022-08-09T03:14:53.503Z,22.55
2022-08-09T03:17:26.357Z,22.55
2022-08-09T03:20:00.529Z,22.55
2022-08-09T03:22:30.704Z,22.54
2022-08-09T03:25:21.661Z,22.53
2022-08-09T03:27:48.651Z,22.55
2022-08-09T03:30:30.083Z,22.54
2022-08-09T03:33:01.601Z,22.54
2022-08-09T03:36:11.813Z,22.54
2022-08-09T03:38:29.042Z,22.54
2022-08-09T03:40:57.832Z,22.53
2022-08-09T03:43:24.200Z,22.55
2022-08-09T03:46:13.607Z,22.54
2022-08-09T03:48:37.555Z,22.54
2022-08-09T03:51:55.296Z,22.53
2022-08-09T03:54:03.934Z,22.54
2022-08-09T03:56:31.173Z,22.52
2022-08-09T03:58:57.607Z,22.54
2022-08-09T04:01:24.948Z,22.53
2022-08-09T04:04:00.614Z,22.54
2022-08-09T04:06:27.959Z,22.53
2022-08-09T04:08:54.319Z,22.53
2022-08-09T04:11:21.077Z,22.53
2022-08-09T04:14:53.117Z,22.53
2022-08-09T04:16:37.735Z,22.52
2022-08-09T04:19:05.305Z,22.53
2022-08-09T04:21:40.182Z,22.53
2022-08-09T04:24:07.087Z,22.53
2022-08-09T04:26:37.919Z,22.52
2022-08-09T04:29:10.894Z,22.53
2022-08-09T04:31:47.049Z,22.52
2022-08-09T04:34:14.015Z,22.53
2022-08-09T04:36:50.138Z,22.53
2022-08-09T04:39:16.947Z,22.51
2022-08-09T04:41:44.141Z,22.53
2022-08-09T04:44:14.328Z,22.53
2022-08-09T04:46:57.179Z,22.52
2022-08-09T04:49:40.851Z,22.52
2022-08-09T04:52:10.781Z,22.52
2022-08-09T04:54:37.720Z,22.53
2022-08-09T04:57:04.227Z,22.52
2022-08-09T04:59:30.752Z,22.52
2022-08-09T05:01:57.146Z,22.52
2022-08-09T05:04:23.555Z,22.52
2022-08-09T05:06:57.716Z,22.52
2022-08-09T05:09:24.425Z,22.52
2022-08-09T05:11:51.298Z,22.51
2022-08-09T05:14:18.377Z,22.52
2022-08-09T05:16:59.231Z,22.52
2022-08-09T05:19:44.709Z,22.51
2022-08-09T05:22:33.342Z,22.52
2022-08-09T05:25:01.101Z,22.51
2022-08-09T05:27:29.103Z,22.52
2022-08-09T05:29:57.463Z,22.51
2022-08-09T05:32:24.093Z,22.51
2022-08-09T05:34:50.501Z,22.51
2022-08-09T05:37:17.173Z,22.51
2022-08-09T05:39:44.606Z,22.52
2022-08-09T05:42:17.723Z,22.52
2022-08-09T05:44:52.087Z,22.51
2022-08-09T05:47:19.274Z,22.50
2022-08-09T05:50:30.507Z,22.52
2022-08-09T05:52:34.433Z,22.52
2022-08-09T05:55:03.279Z,22.52
2022-08-09T05:57:55.812Z,22.52
2022-08-09T06:00:23.751Z,22.51
2022-08-09T06:02:54.381Z,22.52
2022-08-09T06:05:31.203Z,22.51
2022-08-09T06:08:11.185Z,22.52
2022-08-09T06:10:37.863Z,22.51
2022-08-09T06:13:12.272Z,22.51
2022-08-09T06:15:46.893Z,22.51
2022-08-09T06:18:13.453Z,22.51
2022-08-09T06:20:42.221Z,22.51
2022-08-09T06:23:12.062Z,22.51
2022-08-09T06:25:41.957Z,22.50
2022-08-09T06:28:09.728Z,22.50
2022-08-09T06:30:36.112Z,22.50
2022-08-09T06:33:30.603Z,22.49
2022-08-09T06:35:57.726Z,22.48
2022-08-09T06:38:36.332Z,22.48
2022-08-09T06:41:03.973Z,22.49
2022-08-09T06:43:34.147Z,22.49
2022-08-09T06:46:06.206Z,22.48
2022-08-09T06:48:34.891Z,22.49
2022-08-09T06:51:04.476Z,22.48
2022-08-09T06:53:38.112Z,22.48
2022-08-09T06:56:05.091Z,22.48
2022-08-09T07:00:50.388Z,22.48
2022-08-09T07:01:18.807Z,22.50
2022-08-09T07:03:51.787Z,22.48
2022-08-09T07:06:20.771Z,22.48
2022-08-09T07:08:49.728Z,22.49
2022-08-09T07:11:23.420Z,22.48
2022-08-09T07:14:05.278Z,22.49
2022-08-09T07:16:41.057Z,22.50
2022-08-09T07:19:15.806Z,22.50
2022-08-09T07:21:55.750Z,22.50
2022-08-09T07:24:32.109Z,22.51
2022-08-09T07:27:10.798Z,22.52
2022-08-09T07:29:52.731Z,22.52
2022-08-09T07:32:23.266Z,22.52
2022-08-09T07:34:59.068Z,22.52
2022-08-09T07:37:25.669Z,22.53
2022-08-09T07:39:53.425Z,22.52
2022-08-09T07:42:32.363Z,22.52
2022-08-09T07:45:01.754Z,22.52
2022-08-09T07:47:49.635Z,22.53
2022-08-09T07:50:32.999Z,22.53
2022-08-09T07:53:02.829Z,22.53
2022-08-09T07:55:30.938Z,22.52
2022-08-09T07:58:17.284Z,22.52
2022-08-09T08:00:59.043Z,22.53
2022-08-09T08:03:31.043Z,22.53
2022-08-09T08:05:58.524Z,22.52
2022-08-09T08:09:02.747Z,22.53
2022-08-09T08:12:10.751Z,22.51
2022-08-09T08:13:57.799Z,22.53
2022-08-09T08:16:29.457Z,22.52
2022-08-09T08:18:57.739Z,22.53
2022-08-09T08:21:24.628Z,22.53
2022-08-09T08:23:55.634Z,22.51
2022-08-09T08:26:26.437Z,22.52
2022-08-09T08:29:08.138Z,22.52
2022-08-09T08:31:39.370Z,22.52
2022-08-09T08:34:21.482Z,22.52
2022-08-09T08:36:52.070Z,22.53
2022-08-09T08:39:18.470Z,22.52
2022-08-09T08:41:51.966Z,22.53
2022-08-09T08:44:26.927Z,22.53
2022-08-09T08:46:59.837Z,22.53
2022-08-09T08:49:38.845Z,22.53
2022-08-09T08:52:24.427Z,22.53
2022-08-09T08:55:01.279Z,22.54
2022-08-09T08:57:30.487Z,22.55
2022-08-09T09:00:01.964Z,22.54
2022-08-09T09:02:30.856Z,22.53
2022-08-09T09:04:58.897Z,22.53
2022-08-09T09:07:33.042Z,22.54
2022-08-09T09:10:04.938Z,22.53
2022-08-09T09:12:36.122Z,22.54
2022-08-09T09:15:02.925Z,22.53
2022-08-09T09:17:48.532Z,22.54
2022-08-09T09:20:18.358Z,22.52
2022-08-09T09:22:51.358Z,22.54
2022-08-09T09:26:02.413Z,22.55
2022-08-09T09:28:21.410Z,22.54
2022-08-09T09:31:03.327Z,22.54
2022-08-09T09:33:44.861Z,22.54
2022-08-09T09:36:20.246Z,22.55
2022-08-09T09:38:50.997Z,22.54
2022-08-09T09:41:23.187Z,22.55
2022-08-09T09:44:12.289Z,22.55
2022-08-09T09:46:43.111Z,22.54
2022-08-09T09:49:12.827Z,22.55
2022-08-09T09:51:40.660Z,22.55
2022-08-09T09:54:14.219Z,22.55
2022-08-09T09:56:53.311Z,22.55
2022-08-09T09:59:35.737Z,22.55
2022-08-09T10:02:02.273Z,22.55
2022-08-09T10:04:30.789Z,22.55
2022-08-09T10:06:57.687Z,22.56
2022-08-09T10:09:25.227Z,22.56
2022-08-09T10:12:12.047Z,22.55
2022-08-09T10:14:47.759Z,22.56
2022-08-09T10:17:51.446Z,22.57
2022-08-09T10:20:02.046Z,22.55
2022-08-09T10:22:33.052Z,22.56
2022-08-09T10:25:03.430Z,22.56
2022-08-09T10:27:38.580Z,22.56
2022-08-09T10:31:38.147Z,22.56
2022-08-09T10:32:58.492Z,22.57
2022-08-09T10:35:25.816Z,22.56
2022-08-09T10:37:52.841Z,22.57
2022-08-09T10:40:34.934Z,22.57
2022-08-09T10:43:01.706Z,22.58
2022-08-09T10:45:31.485Z,22.57
2022-08-09T10:48:19.450Z,22.56
2022-08-09T10:51:08.754Z,22.58
2022-08-09T10:53:39.621Z,22.57
2022-08-09T10:56:23.954Z,22.57
2022-08-09T10:58:50.882Z,22.58
2022-08-09T11:03:13.787Z,22.58
2022-08-09T11:04:30.922Z,22.59
2022-08-09T11:07:00.198Z,22.58
2022-08-09T11:09:38.988Z,22.58
2022-08-09T11:12:11.574Z,22.58
2022-08-09T11:14:56.222Z,22.59
2022-08-09T11:17:24.401Z,22.58
2022-08-09T11:20:11.966Z,22.59
2022-08-09T11:22:45.048Z,22.59
2022-08-09T11:25:12.575Z,22.59
2022-08-09T11:28:02.985Z,22.59
2022-08-09T11:30:33.694Z,22.60
2022-08-09T11:33:04.462Z,22.61
2022-08-09T11:35:50.442Z,22.59
2022-08-09T11:38:32.980Z,22.59
2022-08-09T11:41:03.625Z,22.58
2022-08-09T11:43:32.040Z,22.56
2022-08-09T11:46:02.024Z,22.65
2022-08-09T11:48:32.594Z,22.60
2022-08-09T11:51:19.695Z,22.58
2022-08-09T11:54:13.405Z,22.58
2022-08-09T11:56:47.512Z,22.59
2022-08-09T11:59:30.356Z,22.59
2022-08-09T12:02:16.016Z,22.59
2022-08-09T12:04:45.049Z,22.61
2022-08-09T12:07:11.586Z,22.62
2022-08-09T12:09:50.377Z,22.62
2022-08-09T12:12:20.509Z,22.63
2022-08-09T12:15:07.205Z,22.63
2022-08-09T12:17:43.706Z,22.62
2022-08-09T12:20:16.468Z,22.64
2022-08-09T12:22:50.297Z,22.63
2022-08-09T12:25:17.267Z,22.64
2022-08-09T12:29:10.641Z,22.65
2022-08-09T12:30:35.432Z,22.64
2022-08-09T12:33:04.765Z,22.65
2022-08-09T12:35:36.032Z,22.64
2022-08-09T12:38:37.571Z,22.64
2022-08-09T12:41:05.480Z,22.65
2022-08-09T12:44:06.591Z,22.65
2022-08-09T12:46:20.040Z,22.65
2022-08-09T12:48:46.445Z,22.65
2022-08-09T12:51:12.813Z,22.66
2022-08-09T12:53:57.591Z,22.65
2022-08-09T12:56:43.620Z,22.65
2022-08-09T12:59:14.282Z,22.66
2022-08-09T13:01:46.876Z,22.66
2022-08-09T13:04:33.311Z,22.67
2022-08-09T13:07:13.767Z,22.66
2022-08-09T13:09:40.951Z,22.67
2022-08-09T13:12:19.609Z,22.66
2022-08-09T13:14:54.235Z,22.67
2022-08-09T13:17:43.718Z,22.68
2022-08-09T13:20:16.340Z,22.68
2022-08-09T13:23:04.905Z,22.67
2022-08-09T13:25:42.119Z,22.68
2022-08-09T13:28:18.927Z,22.69
2022-08-09T13:32:12.527Z,22.68
2022-08-09T13:33:52.754Z,22.68
2022-08-09T13:36:38.497Z,22.71
2022-08-09T13:41:17.342Z,22.71
2022-08-09T13:42:01.006Z,22.71
2022-08-09T13:44:27.940Z,22.72
2022-08-09T13:47:29.478Z,22.72
2022-08-09T13:49:57.508Z,22.72
2022-08-09T13:52:27.019Z,22.73
2022-08-09T13:54:59.249Z,22.73
2022-08-09T13:57:36.725Z,22.75
2022-08-09T14:00:06.727Z,22.73
2022-08-09T14:02:42.869Z,22.73
2022-08-09T14:06:00.246Z,22.73
2022-08-09T14:08:10.574Z,22.73
2022-08-09T14:10:46.284Z,22.70
2022-08-09T14:13:21.882Z,22.70
2022-08-09T14:16:10.241Z,22.71
2022-08-09T14:18:37.866Z,22.72
2022-08-09T14:21:04.423Z,22.73
2022-08-09T14:23:41.025Z,22.74
2022-08-09T14:26:20.333Z,22.75
2022-08-09T14:28:46.713Z,22.75
2022-08-09T14:31:13.641Z,22.77
2022-08-09T14:33:39.989Z,22.76
2022-08-09T14:36:20.861Z,22.76
2022-08-09T14:38:47.494Z,22.77
2022-08-09T14:41:34.617Z,22.77
2022-08-09T14:44:05.805Z,22.79
2022-08-09T14:46:57.018Z,22.78
2022-08-09T14:49:23.601Z,22.79
2022-08-09T14:51:50.258Z,22.80
2022-08-09T14:54:16.809Z,22.80
2022-08-09T14:56:57.886Z,22.80
2022-08-09T14:59:24.930Z,22.80
2022-08-09T15:01:53.463Z,22.83
2022-08-09T15:04:19.921Z,22.82
2022-08-09T15:06:49.936Z,22.83
2022-08-09T15:10:03.336Z,22.85
2022-08-09T15:12:04.722Z,22.84
2022-08-09T15:14:34.336Z,22.85
2022-08-09T15:17:00.765Z,22.85
2022-08-09T15:19:36.277Z,22.92
2022-08-09T15:22:03.103Z,22.93
2022-08-09T15:24:29.564Z,22.93
2022-08-09T15:26:55.943Z,22.93
2022-08-09T15:30:57.215Z,22.93
2022-08-09T15:32:29.733Z,22.99
2022-08-09T15:34:59.748Z,23.02
2022-08-09T15:37:56.164Z,23.02
2022-08-09T15:40:22.865Z,23.04
2022-08-09T15:42:51.782Z,23.05
2022-08-09T15:45:21.713Z,23.02
2022-08-09T15:48:05.340Z,23.01
2022-08-09T15:50:38.937Z,23.02
2022-08-09T15:53:07.552Z,23.02
2022-08-09T15:55:59.036Z,23.02
2022-08-09T15:58:30.805Z,23.02
2022-08-09T16:00:59.286Z,23.04
2022-08-09T16:03:29.423Z,23.03
2022-08-09T16:06:04.901Z,23.04
2022-08-09T16:08:31.664Z,23.07
2022-08-09T16:11:02.010Z,23.10
2022-08-09T16:14:05.385Z,23.10
2022-08-09T16:16:18.637Z,23.10
2022-08-09T16:18:45.633Z,23.08
2022-08-09T16:21:12.498Z,23.08
2022-08-09T16:23:50.825Z,23.08
2022-08-09T16:26:34.654Z,23.08
2022-08-09T16:29:05.990Z,23.08
2022-08-09T16:32:18.468Z,23.08
2022-08-09T16:34:24.705Z,23.08
2022-08-09T16:36:51.078Z,23.08
2022-08-09T16:39:17.485Z,23.09
2022-08-09T16:42:03.461Z,23.08
2022-08-09T16:44:31.604Z,23.09
2022-08-09T16:47:03.861Z,23.09
2022-08-09T16:50:29.571Z,23.09
2022-08-09T16:52:31.200Z,23.09
2022-08-09T16:54:58.038Z,23.09
2022-08-09T16:57:24.399Z,23.09
2022-08-09T16:59:57.914Z,23.10
2022-08-09T17:02:25.493Z,23.10
2022-08-09T17:04:52.036Z,23.11
2022-08-09T17:08:45.321Z,23.10
2022-08-09T17:10:05.889Z,23.09
2022-08-09T17:12:35.362Z,23.11
2022-08-09T17:15:01.907Z,23.11
2022-08-09T17:17:50.400Z,23.11
2022-08-09T17:20:35.786Z,23.11
2022-08-09T17:23:04.128Z,23.11
2022-08-09T17:25:31.270Z,23.10
2022-08-09T17:28:03.593Z,23.10
2022-08-09T17:30:30.778Z,23.10
2022-08-09T17:32:57.502Z,23.11
2022-08-09T17:35:27.154Z,23.11
2022-08-09T17:38:10.258Z,23.11
2022-08-09T17:40:41.258Z,23.11
2022-08-09T17:43:33.019Z,23.10
2022-08-09T17:46:03.681Z,23.11
2022-08-09T17:48:32.566Z,23.12
2022-08-09T17:51:06.536Z,23.12
2022-08-09T17:53:43.311Z,23.12
2022-08-09T17:56:14.434Z,23.12
2022-08-09T17:58:44.634Z,23.11
2022-08-09T18:01:11.095Z,23.11
2022-08-09T18:03:49.301Z,23.12
2022-08-09T18:06:30.904Z,23.13
2022-08-09T18:08:59.276Z,23.14
2022-08-09T18:11:25.659Z,23.14
2022-08-09T18:14:00.614Z,23.13
2022-08-09T18:16:32.082Z,23.13
2022-08-09T18:18:59.498Z,23.13
2022-08-09T18:21:31.761Z,23.12
2022-08-09T18:24:09.999Z,23.13
2022-08-09T18:26:46.901Z,23.12
2022-08-09T18:30:42.990Z,23.11
2022-08-09T18:32:01.042Z,23.13
2022-08-09T18:34:31.400Z,23.13
2022-08-09T18:36:58.088Z,23.10
2022-08-09T18:39:25.552Z,23.12
2022-08-09T18:41:53.938Z,23.11
2022-08-09T18:44:25.740Z,23.12
2022-08-09T18:47:03.562Z,23.12
2022-08-09T18:49:41.649Z,23.13
2022-08-09T18:52:12.753Z,23.12
2022-08-09T18:54:39.286Z,23.13
2022-08-09T18:57:15.410Z,23.13
2022-08-09T18:59:49.194Z,23.13
2022-08-09T19:02:19.205Z,23.13
2022-08-09T19:04:47.447Z,23.13
2022-08-09T19:07:27.166Z,23.12
2022-08-09T19:10:14.781Z,23.13
2022-08-09T19:12:45.469Z,23.13
2022-08-09T19:15:19.419Z,23.13
2022-08-09T19:17:56.190Z,23.13
2022-08-09T19:20:24.608Z,23.15
2022-08-09T19:22:54.453Z,23.15
2022-08-09T19:25:41.348Z,23.14
2022-08-09T19:28:08.027Z,23.14
2022-08-09T19:30:39.956Z,23.14
2022-08-09T19:33:19.060Z,23.14
2022-08-09T19:35:58.414Z,23.15
2022-08-09T19:38:25.474Z,23.14
2022-08-09T19:40:52.700Z,23.14
2022-08-09T19:43:57.984Z,23.14
2022-08-09T19:46:08.425Z,23.14
2022-08-09T19:49:01.787Z,23.14
2022-08-09T19:51:27.526Z,23.14
2022-08-09T19:53:57.545Z,23.14
2022-08-09T19:56:29.062Z,23.15
2022-08-09T19:59:39.786Z,23.16
2022-08-09T20:01:52.555Z,23.17
2022-08-09T20:04:36.718Z,23.17
2022-08-09T20:07:06.213Z,23.17
2022-08-09T20:09:45.749Z,23.17
2022-08-09T20:12:29.982Z,23.17
2022-08-09T20:15:01.537Z,23.17
2022-08-09T20:17:48.107Z,23.16
2022-08-09T20:20:14.939Z,23.17
2022-08-09T20:22:42.895Z,23.16
2022-08-09T20:25:12.700Z,23.17
2022-08-09T20:27:43.086Z,23.17
2022-08-09T20:30:10.727Z,23.16
2022-08-09T20:32:38.903Z,23.17
2022-08-09T20:35:06.265Z,23.17
2022-08-09T20:38:18.782Z,23.19
2022-08-09T20:40:27.203Z,23.19
2022-08-09T20:43:12.290Z,23.18
2022-08-09T20:45:57.570Z,23.19
2022-08-09T20:48:29.092Z,23.19
2022-08-09T20:50:58.036Z,23.19
2022-08-09T20:53:35.288Z,23.19
2022-08-09T20:56:05.076Z,23.20
2022-08-09T20:58:32.368Z,23.20
2022-08-09T21:01:13.653Z,23.19
2022-08-09T21:05:49.360Z,23.20
2022-08-09T21:06:32.652Z,23.21
2022-08-09T21:09:01.491Z,23.19
2022-08-09T21:14:15.390Z,23.20
2022-08-09T21:16:43.717Z,23.20
2022-08-09T21:20:17.891Z,23.20
2022-08-09T21:21:58.945Z,23.19
2022-08-09T21:24:28.948Z,23.21
2022-08-09T21:26:58.951Z,23.21
2022-08-09T21:29:25.335Z,23.22
2022-08-09T21:31:51.697Z,23.21
2022-08-09T21:34:28.547Z,23.20
2022-08-09T21:36:56.567Z,23.20
2022-08-09T21:39:27.692Z,23.21
2022-08-09T21:42:04.669Z,23.20
2022-08-09T21:44:35.341Z,23.19
2022-08-09T21:47:04.174Z,23.19
2022-08-09T21:49:39.675Z,23.20
2022-08-09T21:52:14.650Z,23.20
2022-08-09T21:54:46.155Z,23.20
2022-08-09T21:57:37.097Z,23.20
2022-08-09T21:59:59.201Z,23.20
2022-08-09T22:02:36.280Z,23.20
2022-08-09T22:05:10.429Z,23.21
2022-08-09T22:07:52.130Z,23.20
2022-08-09T22:10:23.241Z,23.20
2022-08-09T22:12:50.354Z,23.20
2022-08-09T22:15:16.944Z,23.19
2022-08-09T22:17:46.115Z,23.21
2022-08-09T22:20:16.771Z,23.21
2022-08-09T22:22:48.606Z,23.20
2022-08-09T22:26:05.907Z,23.21
2022-08-09T22:28:01.462Z,23.22
2022-08-09T22:30:33.753Z,23.20
2022-08-09T22:33:00.128Z,23.20
2022-08-09T22:36:02.530Z,23.19
2022-08-09T22:38:14.751Z,23.20
2022-08-09T22:40:49.317Z,23.19
2022-08-09T22:44:03.186Z,23.20
2022-08-09T22:48:14.809Z,23.19
2022-08-09T22:48:59.929Z,23.20
2022-08-09T22:51:28.420Z,23.20
2022-08-09T22:54:02.290Z,23.19
2022-08-09T22:56:33.961Z,23.20
2022-08-09T22:59:05.845Z,23.19
2022-08-09T23:01:50.414Z,23.19
2022-08-09T23:04:17.316Z,23.19
2022-08-09T23:07:02.595Z,23.20
2022-08-09T23:09:28.956Z,23.19
2022-08-09T23:11:55.302Z,23.19
2022-08-09T23:14:30.416Z,23.20
2022-08-09T23:17:08.175Z,23.20
2022-08-09T23:20:06.064Z,23.21
2022-08-09T23:22:20.890Z,23.21
2022-08-09T23:24:48.658Z,23.20
2022-08-09T23:27:15.153Z,23.20
2022-08-09T23:29:41.507Z,23.21
2022-08-09T23:32:07.864Z,23.20
2022-08-09T23:34:34.231Z,23.21
2022-08-09T23:37:00.584Z,23.21
2022-08-09T23:39:26.994Z,23.21
2022-08-09T23:41:53.401Z,23.22
2022-08-09T23:44:19.751Z,23.22
2022-08-09T23:46:46.106Z,23.23
2022-08-09T23:49:24.692Z,23.23
2022-08-09T23:51:51.344Z,23.24
2022-08-09T23:54:17.795Z,23.24
2022-08-09T23:56:53.960Z,23.23
2022-08-09T23:59:21.632Z,23.23
